createdAt,value
2018-12-03T00:02:27.626Z,20.01
2018-12-03T00:04:57.109Z,19.99
2018-12-03T00:07:27.524Z,19.99
2018-12-03T00:09:58.643Z,19.95
2018-12-03T00:12:30.912Z,19.94
2018-12-03T00:15:00.100Z,19.93
2018-12-03T00:17:28.707Z,19.90
2018-12-03T00:19:57.184Z,19.87
2018-12-03T00:22:25.739Z,19.83
2018-12-03T00:24:54.633Z,19.81
2018-12-03T00:27:23.340Z,19.81
2018-12-03T00:29:53.129Z,19.80
2018-12-03T00:32:21.662Z,19.76
2018-12-03T00:34:50.346Z,19.72
2018-12-03T00:38:42.635Z,19.77
2018-12-03T00:41:52.338Z,19.71
2018-12-03T00:47:37.952Z,19.69
2018-12-03T00:50:27.523Z,19.64
2018-12-03T00:53:37.246Z,19.64
2018-12-03T00:56:47.486Z,19.60
2018-12-03T00:59:18.303Z,19.60
2018-12-03T01:02:25.774Z,19.56
2018-12-03T01:05:35.821Z,19.55
2018-12-03T01:11:21.117Z,19.45
2018-12-03T01:14:10.607Z,19.41
2018-12-03T01:16:52.677Z,19.39
2018-12-03T01:19:23.584Z,19.38
2018-12-03T01:28:11.728Z,19.29
2018-12-03T01:31:21.305Z,19.27
2018-12-03T01:34:30.998Z,19.25
2018-12-03T01:43:16.063Z,19.18
2018-12-03T01:49:12.852Z,19.15
2018-12-03T01:52:22.496Z,19.12
2018-12-03T01:58:05.636Z,19.08
2018-12-03T02:04:02.462Z,19.04
2018-12-03T02:09:48.509Z,18.98
2018-12-03T02:18:14.083Z,18.94
2018-12-03T02:21:23.646Z,18.91
2018-12-03T02:26:58.969Z,18.88
2018-12-03T02:38:58.891Z,18.81
2018-12-03T02:47:46.730Z,18.73
2018-12-03T02:50:56.296Z,18.73
2018-12-03T02:54:05.909Z,18.72
2018-12-03T03:03:23.158Z,18.67
2018-12-03T03:12:04.862Z,18.60
2018-12-03T03:18:07.617Z,18.59
2018-12-03T03:30:27.240Z,18.52
2018-12-03T03:33:16.940Z,18.50
2018-12-03T03:36:28.484Z,18.48
2018-12-03T03:42:01.890Z,18.44
2018-12-03T03:44:30.608Z,18.42
2018-12-03T03:46:59.594Z,18.41
2018-12-03T03:49:28.161Z,18.40
2018-12-03T03:51:57.345Z,18.38
2018-12-03T03:54:26.058Z,18.38
2018-12-03T03:56:54.633Z,18.38
2018-12-03T03:59:23.238Z,18.35
2018-12-03T04:01:52.186Z,18.35
2018-12-03T04:04:20.816Z,18.35
2018-12-03T04:06:49.359Z,18.33
2018-12-03T04:09:17.966Z,18.32
2018-12-03T04:11:47.534Z,18.31
2018-12-03T04:14:16.402Z,18.27
2018-12-03T04:16:45.112Z,18.29
2018-12-03T04:19:13.606Z,18.28
2018-12-03T04:21:42.493Z,18.27
2018-12-03T04:24:11.119Z,18.24
2018-12-03T04:26:39.896Z,18.24
2018-12-03T04:29:08.660Z,18.23
2018-12-03T04:32:21.757Z,18.22
2018-12-03T04:34:50.604Z,18.22
2018-12-03T04:37:20.814Z,18.20
2018-12-03T04:39:49.323Z,18.20
2018-12-03T04:42:18.619Z,18.19
2018-12-03T04:44:47.514Z,18.18
2018-12-03T04:47:16.013Z,18.17
2018-12-03T04:49:45.116Z,18.16
2018-12-03T04:52:13.795Z,18.15
2018-12-03T04:54:42.748Z,18.16
2018-12-03T04:57:11.381Z,18.14
2018-12-03T04:59:40.303Z,18.14
2018-12-03T05:02:08.824Z,18.11
2018-12-03T05:04:37.549Z,18.10
2018-12-03T05:07:06.331Z,18.11
2018-12-03T05:09:34.883Z,18.11
2018-12-03T05:12:03.639Z,18.09
2018-12-03T05:14:32.090Z,18.10
2018-12-03T05:18:56.813Z,18.12
2018-12-03T05:22:05.911Z,18.07
2018-12-03T05:25:19.134Z,18.07
2018-12-03T05:30:48.315Z,18.05
2018-12-03T05:33:57.538Z,18.03
2018-12-03T05:37:07.289Z,18.00
2018-12-03T05:42:31.737Z,17.94
2018-12-03T05:45:20.341Z,17.90
2018-12-03T05:54:23.638Z,17.94
2018-12-03T06:03:19.971Z,18.02
2018-12-03T06:14:18.482Z,18.10
2018-12-03T06:17:09.011Z,18.13
2018-12-03T06:22:37.407Z,18.22
2018-12-03T06:25:22.667Z,18.19
2018-12-03T06:28:31.842Z,18.23
2018-12-03T06:31:01.559Z,18.26
2018-12-03T06:36:49.482Z,18.32
2018-12-03T06:42:44.680Z,18.40
2018-12-03T06:45:34.031Z,18.43
2018-12-03T06:48:44.055Z,18.45
2018-12-03T06:51:32.977Z,18.48
2018-12-03T06:54:42.660Z,18.51
2018-12-03T07:00:58.433Z,18.53
2018-12-03T07:03:28.679Z,18.57
2018-12-03T07:05:58.656Z,18.59
2018-12-03T07:11:23.758Z,18.61
2018-12-03T07:17:38.292Z,18.60
2018-12-03T07:20:12.933Z,18.60
2018-12-03T07:22:55.071Z,18.63
2018-12-03T07:25:14.485Z,18.63
2018-12-03T07:28:03.364Z,18.62
2018-12-03T07:30:33.287Z,18.62
2018-12-03T07:33:02.754Z,18.65
2018-12-03T07:36:02.558Z,18.64
2018-12-03T07:38:43.038Z,18.60
2018-12-03T07:41:12.910Z,18.60
2018-12-03T07:43:42.290Z,18.60
2018-12-03T07:49:46.998Z,18.65
2018-12-03T07:58:51.868Z,18.69
2018-12-03T08:01:32.369Z,18.68
2018-12-03T08:13:17.771Z,18.74
2018-12-03T08:19:04.470Z,18.76
2018-12-03T08:22:05.514Z,18.76
2018-12-03T08:27:00.969Z,18.78
2018-12-03T08:32:25.433Z,18.81
2018-12-03T08:38:03.633Z,18.88
2018-12-03T08:41:12.813Z,18.90
2018-12-03T08:53:17.666Z,18.97
2018-12-03T08:56:06.810Z,18.96
2018-12-03T08:59:28.070Z,18.97
2018-12-03T09:02:06.778Z,19.01
2018-12-03T09:05:16.063Z,18.99
2018-12-03T09:11:19.151Z,19.02
2018-12-03T09:17:15.157Z,19.10
2018-12-03T09:22:59.685Z,19.15
2018-12-03T09:26:09.078Z,19.15
2018-12-03T09:29:18.323Z,19.13
2018-12-03T09:37:24.244Z,19.19
2018-12-03T09:39:54.164Z,19.22
2018-12-03T09:45:50.060Z,19.29
2018-12-03T09:51:21.139Z,19.23
2018-12-03T09:57:08.035Z,19.31
2018-12-03T10:00:08.100Z,19.34
2018-12-03T10:02:48.189Z,19.34
2018-12-03T10:05:28.674Z,19.37
2018-12-03T10:14:24.171Z,19.44
2018-12-03T10:16:56.334Z,19.44
2018-12-03T10:19:33.661Z,19.44
2018-12-03T10:22:03.615Z,19.45
2018-12-03T10:24:33.780Z,19.45
2018-12-03T10:27:08.467Z,19.46
2018-12-03T10:29:38.964Z,19.46
2018-12-03T10:32:11.098Z,19.47
2018-12-03T10:34:40.547Z,19.46
2018-12-03T10:37:12.451Z,19.50
2018-12-03T10:39:42.500Z,19.53
2018-12-03T10:42:14.348Z,19.56
2018-12-03T10:44:45.023Z,19.61
2018-12-03T10:47:14.534Z,19.62
2018-12-03T10:49:44.463Z,19.63
2018-12-03T10:52:19.270Z,19.62
2018-12-03T10:54:49.191Z,19.65
2018-12-03T10:57:19.255Z,19.66
2018-12-03T10:59:53.360Z,19.68
2018-12-03T11:02:35.137Z,19.67
2018-12-03T11:05:11.427Z,19.68
2018-12-03T11:07:41.293Z,19.70
2018-12-03T11:10:11.094Z,19.71
2018-12-03T11:12:41.004Z,19.68
2018-12-03T11:15:14.197Z,19.68
2018-12-03T11:17:43.664Z,19.69
2018-12-03T11:20:13.926Z,19.71
2018-12-03T11:22:47.540Z,19.72
2018-12-03T11:25:18.440Z,19.73
2018-12-03T11:27:51.321Z,19.75
2018-12-03T11:30:21.848Z,19.76
2018-12-03T11:32:53.596Z,19.78
2018-12-03T11:35:26.320Z,19.79
2018-12-03T11:38:05.016Z,19.75
2018-12-03T11:40:48.188Z,19.79
2018-12-03T11:43:18.369Z,19.80
2018-12-03T11:45:48.326Z,19.78
2018-12-03T11:48:18.164Z,19.78
2018-12-03T11:50:48.225Z,19.81
2018-12-03T11:53:18.429Z,19.83
2018-12-03T11:55:48.259Z,19.80
2018-12-03T11:58:17.908Z,19.79
2018-12-03T12:00:47.550Z,19.80
2018-12-03T12:03:18.016Z,19.83
2018-12-03T12:05:47.483Z,19.87
2018-12-03T12:08:17.654Z,19.87
2018-12-03T12:10:48.569Z,19.87
2018-12-03T12:13:18.904Z,19.85
2018-12-03T12:15:48.652Z,19.89
2018-12-03T12:18:18.301Z,19.90
2018-12-03T12:20:48.250Z,19.88
2018-12-03T12:23:17.823Z,19.87
2018-12-03T12:25:47.925Z,19.91
2018-12-03T12:28:18.686Z,19.88
2018-12-03T12:30:48.811Z,19.87
2018-12-03T12:33:18.509Z,19.88
2018-12-03T12:35:48.405Z,19.88
2018-12-03T12:38:18.521Z,19.92
2018-12-03T12:40:47.912Z,19.91
2018-12-03T12:43:18.273Z,19.90
2018-12-03T12:45:52.218Z,19.96
2018-12-03T12:48:21.985Z,19.90
2018-12-03T12:50:51.580Z,19.89
2018-12-03T12:53:21.167Z,19.88
2018-12-03T12:55:50.749Z,19.86
2018-12-03T12:58:20.723Z,19.89
2018-12-03T13:00:50.163Z,19.83
2018-12-03T13:03:19.542Z,19.86
2018-12-03T13:05:54.860Z,19.84
2018-12-03T13:08:31.531Z,19.85
2018-12-03T13:11:01.406Z,19.82
2018-12-03T13:13:31.171Z,19.85
2018-12-03T13:16:00.943Z,19.78
2018-12-03T13:18:30.539Z,19.82
2018-12-03T13:21:00.096Z,19.79
2018-12-03T13:23:29.510Z,19.80
2018-12-03T13:25:59.676Z,19.74
2018-12-03T13:28:29.085Z,19.76
2018-12-03T13:30:58.655Z,19.75
2018-12-03T13:33:28.330Z,19.77
2018-12-03T13:35:58.179Z,19.80
2018-12-03T13:38:27.799Z,19.76
2018-12-03T13:40:59.944Z,19.77
2018-12-03T13:43:29.712Z,19.79
2018-12-03T13:45:59.920Z,19.82
2018-12-03T13:48:30.321Z,19.78
2018-12-03T13:51:00.189Z,19.80
2018-12-03T13:53:29.692Z,19.79
2018-12-03T13:55:59.077Z,19.79
2018-12-03T13:58:28.518Z,19.76
2018-12-03T14:00:57.904Z,19.74
2018-12-03T14:03:29.574Z,19.76
2018-12-03T14:06:13.315Z,19.77
2018-12-03T14:08:53.670Z,19.85
2018-12-03T14:11:32.080Z,19.83
2018-12-03T14:16:33.089Z,19.77
2018-12-03T14:19:15.250Z,19.83
2018-12-03T14:21:51.524Z,19.79
2018-12-03T14:24:21.851Z,19.82
2018-12-03T14:26:52.583Z,19.82
2018-12-03T14:29:22.379Z,19.80
2018-12-03T14:31:51.760Z,19.80
2018-12-03T14:34:25.633Z,19.78
2018-12-03T14:36:55.377Z,19.80
2018-12-03T14:39:24.782Z,19.77
2018-12-03T14:41:54.494Z,19.78
2018-12-03T14:44:24.995Z,19.78
2018-12-03T14:46:55.531Z,19.77
2018-12-03T14:49:25.373Z,19.77
2018-12-03T14:51:55.053Z,19.72
2018-12-03T14:54:24.556Z,19.70
2018-12-03T14:56:54.741Z,19.70
2018-12-03T14:59:24.311Z,19.69
2018-12-03T15:02:07.722Z,19.70
2018-12-03T15:07:36.717Z,19.69
2018-12-03T15:10:08.168Z,19.70
2018-12-03T15:12:38.853Z,19.67
2018-12-03T15:15:12.086Z,19.70
2018-12-03T15:17:43.720Z,19.69
2018-12-03T15:20:13.696Z,19.70
2018-12-03T15:22:43.481Z,19.67
2018-12-03T15:25:15.645Z,19.63
2018-12-03T15:27:45.656Z,19.62
2018-12-03T15:30:15.507Z,19.62
2018-12-03T15:32:45.509Z,19.63
2018-12-03T15:35:15.286Z,19.65
2018-12-03T15:37:45.127Z,19.65
2018-12-03T15:40:18.053Z,19.63
2018-12-03T15:42:48.362Z,19.66
2018-12-03T15:45:19.058Z,19.63
2018-12-03T15:47:53.481Z,19.63
2018-12-03T15:50:23.244Z,19.61
2018-12-03T15:52:53.250Z,19.61
2018-12-03T15:55:24.050Z,19.62
2018-12-03T15:57:55.540Z,19.59
2018-12-03T16:00:25.197Z,19.57
2018-12-03T16:02:55.043Z,19.60
2018-12-03T16:05:26.283Z,19.56
2018-12-03T16:07:56.143Z,19.54
2018-12-03T16:10:25.596Z,19.48
2018-12-03T16:12:55.138Z,19.53
2018-12-03T16:15:25.373Z,19.44
2018-12-03T16:17:54.840Z,19.50
2018-12-03T16:20:24.623Z,19.53
2018-12-03T16:22:54.662Z,19.55
2018-12-03T16:25:24.359Z,19.51
2018-12-03T16:27:55.004Z,19.46
2018-12-03T16:30:25.531Z,19.41
2018-12-03T16:32:56.440Z,19.44
2018-12-03T16:35:26.366Z,19.48
2018-12-03T16:37:55.813Z,19.56
2018-12-03T16:40:26.232Z,19.60
2018-12-03T16:42:55.987Z,19.62
2018-12-03T16:45:25.579Z,19.62
2018-12-03T16:47:56.061Z,19.65
2018-12-03T16:50:25.621Z,19.66
2018-12-03T16:52:55.357Z,19.60
2018-12-03T16:55:25.185Z,19.58
2018-12-03T16:57:54.837Z,19.64
2018-12-03T17:00:24.900Z,19.68
2018-12-03T17:02:54.531Z,19.73
2018-12-03T17:05:24.199Z,19.73
2018-12-03T17:07:53.768Z,19.75
2018-12-03T17:10:23.243Z,19.74
2018-12-03T17:12:53.691Z,19.74
2018-12-03T17:15:23.238Z,19.77
2018-12-03T17:20:45.271Z,19.81
2018-12-03T17:23:29.074Z,19.83
2018-12-03T17:25:58.895Z,19.83
2018-12-03T17:28:28.461Z,19.87
2018-12-03T17:30:58.823Z,19.83
2018-12-03T17:33:28.264Z,19.84
2018-12-03T17:35:57.911Z,19.89
2018-12-03T17:38:27.712Z,19.92
2018-12-03T17:40:58.074Z,19.91
2018-12-03T17:43:28.948Z,19.93
2018-12-03T17:45:58.418Z,19.96
2018-12-03T17:48:28.148Z,19.99
2018-12-03T17:50:58.069Z,20.01
2018-12-03T17:53:28.155Z,20.04
2018-12-03T17:55:57.784Z,20.03
2018-12-03T17:58:30.431Z,19.99
2018-12-03T18:01:00.188Z,20.02
2018-12-03T18:03:30.201Z,20.05
2018-12-03T18:06:00.633Z,20.05
2018-12-03T18:08:31.220Z,20.07
2018-12-03T18:11:00.860Z,20.08
2018-12-03T18:13:30.865Z,20.10
2018-12-03T18:16:00.590Z,20.12
2018-12-03T18:21:06.389Z,20.13
2018-12-03T18:23:37.425Z,20.15
2018-12-03T18:26:09.113Z,20.16
2018-12-03T18:28:40.722Z,20.21
2018-12-03T18:31:10.940Z,20.21
2018-12-03T18:33:41.265Z,20.20
2018-12-03T18:36:10.930Z,20.21
2018-12-03T18:38:44.887Z,20.20
2018-12-03T18:41:15.190Z,20.18
2018-12-03T18:43:45.198Z,20.14
2018-12-03T18:46:15.343Z,20.13
2018-12-03T18:48:45.396Z,20.15
2018-12-03T18:51:14.811Z,20.16
2018-12-03T18:53:44.682Z,20.15
2018-12-03T18:56:14.735Z,20.15
2018-12-03T18:58:52.376Z,20.16
2018-12-03T19:01:22.451Z,20.16
2018-12-03T19:03:53.299Z,20.14
2018-12-03T19:06:23.940Z,20.16
2018-12-03T19:08:53.683Z,20.15
2018-12-03T19:11:23.898Z,20.14
2018-12-03T19:13:53.452Z,20.09
2018-12-03T19:16:23.783Z,20.09
2018-12-03T19:18:53.705Z,20.10
2018-12-03T19:21:23.907Z,20.05
2018-12-03T19:23:53.339Z,20.09
2018-12-03T19:26:26.208Z,20.09
2018-12-03T19:28:55.671Z,20.09
2018-12-03T19:31:25.475Z,20.11
2018-12-03T19:33:55.279Z,20.11
2018-12-03T19:36:26.747Z,20.10
2018-12-03T19:38:58.047Z,20.09
2018-12-03T19:41:27.466Z,20.09
2018-12-03T19:43:57.784Z,20.10
2018-12-03T19:46:28.214Z,20.09
2018-12-03T19:48:58.324Z,20.09
2018-12-03T19:51:29.450Z,20.10
2018-12-03T19:53:59.916Z,20.09
2018-12-03T19:56:29.640Z,20.06
2018-12-03T19:58:59.040Z,20.03
2018-12-03T20:01:30.089Z,20.05
2018-12-03T20:04:04.228Z,20.08
2018-12-03T20:06:36.305Z,20.05
2018-12-03T20:09:07.437Z,20.04
2018-12-03T20:11:37.617Z,20.05
2018-12-03T20:14:07.542Z,20.06
2018-12-03T20:16:37.033Z,20.05
2018-12-03T20:19:06.667Z,20.06
2018-12-03T20:21:36.817Z,20.06
2018-12-03T20:24:10.785Z,20.07
2018-12-03T20:26:49.083Z,20.07
2018-12-03T20:34:11.509Z,20.01
2018-12-03T20:36:53.494Z,20.03
2018-12-03T20:39:32.154Z,20.05
2018-12-03T20:42:05.132Z,20.04
2018-12-03T20:44:40.893Z,20.05
2018-12-03T20:47:35.040Z,20.08
2018-12-03T20:51:21.279Z,20.05
2018-12-03T20:53:51.217Z,20.05
2018-12-03T20:56:21.180Z,20.07
2018-12-03T20:58:50.769Z,20.10
2018-12-03T21:01:20.977Z,20.05
2018-12-03T21:03:50.917Z,20.03
2018-12-03T21:06:20.729Z,20.02
2018-12-03T21:08:50.188Z,20.03
2018-12-03T21:11:22.739Z,20.05
2018-12-03T21:13:52.194Z,20.06
2018-12-03T21:16:22.794Z,20.06
2018-12-03T21:18:52.439Z,20.06
2018-12-03T21:21:22.295Z,20.08
2018-12-03T21:23:51.886Z,20.09
2018-12-03T21:26:21.295Z,20.05
2018-12-03T21:28:51.047Z,20.05
2018-12-03T21:31:22.101Z,20.05
2018-12-03T21:33:51.886Z,20.07
2018-12-03T21:36:21.284Z,20.06
2018-12-03T21:38:51.495Z,20.05
2018-12-03T21:41:21.457Z,20.03
2018-12-03T21:43:51.203Z,20.03
2018-12-03T21:46:20.594Z,19.94
2018-12-03T21:48:50.427Z,19.99
2018-12-03T21:51:20.090Z,20.00
2018-12-03T21:53:49.802Z,19.98
2018-12-03T21:56:19.220Z,19.96
2018-12-03T21:58:48.620Z,19.96
2018-12-03T22:01:18.031Z,19.95
2018-12-03T22:03:47.482Z,19.95
2018-12-03T22:06:17.139Z,19.92
2018-12-03T22:08:47.488Z,19.91
2018-12-03T22:11:17.203Z,19.93
2018-12-03T22:13:46.755Z,19.83
2018-12-03T22:16:16.593Z,19.84
2018-12-03T22:18:49.176Z,19.85
2018-12-03T22:21:20.409Z,19.85
2018-12-03T22:23:50.141Z,19.87
2018-12-03T22:26:19.861Z,19.89
2018-12-03T22:28:49.720Z,19.87
2018-12-03T22:31:19.382Z,19.87
2018-12-03T22:33:49.025Z,19.85
2018-12-03T22:36:18.837Z,19.84
2018-12-03T22:38:48.952Z,19.84
2018-12-03T22:41:18.537Z,19.81
2018-12-03T22:43:49.659Z,19.79
2018-12-03T22:46:19.271Z,19.76
2018-12-03T22:48:48.779Z,19.75
2018-12-03T22:51:19.344Z,19.72
2018-12-03T22:53:49.473Z,19.70
2018-12-03T22:56:19.400Z,19.69
2018-12-03T22:58:49.005Z,19.68
2018-12-03T23:01:24.880Z,19.67
2018-12-03T23:03:54.525Z,19.67
2018-12-03T23:06:24.388Z,19.66
2018-12-03T23:08:54.160Z,19.61
2018-12-03T23:11:23.944Z,19.55
2018-12-03T23:13:53.499Z,19.52
2018-12-03T23:16:23.149Z,19.50
2018-12-03T23:18:53.461Z,19.49
2018-12-03T23:21:23.092Z,19.46
2018-12-03T23:23:52.737Z,19.40
2018-12-03T23:26:22.706Z,19.39
2018-12-03T23:28:52.226Z,19.37
2018-12-03T23:31:21.880Z,19.37
2018-12-03T23:33:51.274Z,19.35
2018-12-03T23:36:21.012Z,19.31
2018-12-03T23:38:51.095Z,19.30
2018-12-03T23:41:20.849Z,19.27
2018-12-03T23:43:50.797Z,19.25
2018-12-03T23:46:20.479Z,19.22
2018-12-03T23:48:50.387Z,19.19
2018-12-03T23:51:21.303Z,19.17
2018-12-03T23:53:51.083Z,19.16
2018-12-03T23:56:21.475Z,19.16
2018-12-03T23:58:51.118Z,19.13
